Time;durP1;ratioP1;P1;durP2;ratioP2;P2;SDS_P1;SDS_P2;PMS_P1;PMS_P2;Temp;Humidity;BMP_temperature;BMP_pressure;BME280_temperature;BME280_humidity;BME280_pressure;Samples;Min_cycle;Max_cycle;Signal;HPM_P1;HPM_P2
2021/08/18 00:02:26;;;;;;;12.53;6.07;;;13.80;99.90;;;;;;5025395;28;20201;-44
2021/08/18 00:04:54;;;;;;;11.37;6.57;;;13.70;99.90;;;;;;4999517;28;20222;-46
2021/08/18 00:07:21;;;;;;;14.37;6.97;;;13.70;99.90;;;;;;5025276;28;20219;-46
2021/08/18 00:09:48;;;;;;;12.33;6.80;;;13.70;99.90;;;;;;5021181;28;20967;-48
2021/08/18 00:12:14;;;;;;;8.47;5.67;;;13.70;99.90;;;;;;5025400;28;20568;-48
2021/08/18 00:14:41;;;;;;;11.30;6.83;;;13.60;99.90;;;;;;5019739;28;20658;-50
2021/08/18 00:17:08;;;;;;;13.67;6.57;;;13.60;99.90;;;;;;5024743;28;20200;-44
2021/08/18 00:19:34;;;;;;;14.07;6.33;;;13.60;99.90;;;;;;5001768;28;20236;-48
2021/08/18 00:22:03;;;;;;;13.80;6.47;;;13.60;99.90;;;;;;5022635;28;20199;-44
2021/08/18 00:24:30;;;;;;;10.97;6.17;;;13.60;99.90;;;;;;5024338;28;20211;-46
2021/08/18 00:26:56;;;;;;;17.37;6.50;;;13.60;99.90;;;;;;5021974;28;20196;-43
2021/08/18 00:29:23;;;;;;;9.87;6.03;;;13.60;99.90;;;;;;5024741;28;20215;-43
2021/08/18 00:31:49;;;;;;;10.60;6.40;;;13.60;99.90;;;;;;5020839;28;20927;-43
2021/08/18 00:34:16;;;;;;;12.80;6.50;;;13.60;99.90;;;;;;5005148;28;20204;-44
2021/08/18 00:36:42;;;;;;;13.03;6.50;;;13.50;99.90;;;;;;5019343;28;20197;-44
2021/08/18 00:39:10;;;;;;;15.77;6.73;;;13.50;99.90;;;;;;5025772;28;20208;-45
2021/08/18 00:41:37;;;;;;;14.60;5.73;;;13.50;99.90;;;;;;5024199;28;20200;-44
2021/08/18 00:44:05;;;;;;;12.23;6.60;;;13.50;99.90;;;;;;5024614;28;20192;-44
2021/08/18 00:46:33;;;;;;;12.20;6.50;;;13.50;99.90;;;;;;5024872;28;20203;-46
2021/08/18 00:48:59;;;;;;;13.97;7.33;;;13.50;99.90;;;;;;5022370;28;20901;-46
2021/08/18 00:51:26;;;;;;;13.27;6.50;;;13.50;99.90;;;;;;5009962;28;20765;-46
2021/08/18 00:53:52;;;;;;;13.13;6.33;;;13.50;99.90;;;;;;5020304;28;20188;-45
2021/08/18 00:56:20;;;;;;;11.27;6.70;;;13.50;99.90;;;;;;5023808;28;20204;-44
2021/08/18 00:58:47;;;;;;;10.10;6.67;;;13.50;99.90;;;;;;5019990;28;20192;-43
2021/08/18 01:01:13;;;;;;;16.20;6.80;;;13.50;99.90;;;;;;5024201;28;20224;-48
2021/08/18 01:03:40;;;;;;;13.60;7.03;;;13.50;99.90;;;;;;5021452;28;20200;-45
2021/08/18 01:06:07;;;;;;;12.80;7.03;;;13.50;99.90;;;;;;5007340;28;20224;-44
2021/08/18 01:08:34;;;;;;;11.43;6.70;;;13.50;99.90;;;;;;5022599;28;20200;-48
2021/08/18 01:11:01;;;;;;;18.47;6.70;;;13.60;99.90;;;;;;5021873;28;20945;-44
2021/08/18 01:13:29;;;;;;;8.93;6.00;;;13.60;99.90;;;;;;5023901;28;20560;-47
2021/08/18 01:15:56;;;;;;;12.43;6.30;;;13.60;99.90;;;;;;5021928;28;20188;-47
2021/08/18 01:25:57;;;;;;;16.83;6.83;;;13.60;99.90;;;;;;5020277;28;20242;-47
2021/08/18 01:28:27;;;;;;;11.27;6.53;;;13.60;99.90;;;;;;5027886;28;20250;-43
2021/08/18 01:30:54;;;;;;;9.87;5.97;;;13.70;99.90;;;;;;5019879;28;20200;-45
2021/08/18 01:33:21;;;;;;;13.20;6.57;;;13.70;99.90;;;;;;5023743;28;20203;-42
2021/08/18 01:35:50;;;;;;;12.77;6.33;;;13.70;99.90;;;;;;5019548;28;20186;-43
2021/08/18 01:38:18;;;;;;;19.17;6.90;;;13.70;99.90;;;;;;5000831;28;20693;-42
2021/08/18 01:40:47;;;;;;;15.77;7.07;;;13.70;99.90;;;;;;5019472;28;20307;-44
2021/08/18 01:43:14;;;;;;;11.33;5.93;;;13.70;99.90;;;;;;5027325;28;20243;-43
2021/08/18 01:45:44;;;;;;;10.53;6.70;;;13.70;99.90;;;;;;5040353;28;20215;-49
2021/08/18 01:48:12;;;;;;;10.90;7.03;;;13.70;99.90;;;;;;5042855;28;20202;-43
2021/08/18 01:50:40;;;;;;;13.70;7.07;;;13.70;99.90;;;;;;5040358;28;20211;-46
2021/08/18 01:53:07;;;;;;;10.43;6.93;;;13.60;99.90;;;;;;5015104;28;20257;-45
2021/08/18 01:55:34;;;;;;;13.00;7.00;;;13.70;99.90;;;;;;5021599;28;20192;-45
2021/08/18 01:58:01;;;;;;;9.97;6.20;;;13.70;99.90;;;;;;5021550;28;20185;-45
2021/08/18 02:00:29;;;;;;;10.53;6.23;;;13.70;99.90;;;;;;5022856;28;20215;-44
2021/08/18 02:02:57;;;;;;;9.60;5.90;;;13.70;99.90;;;;;;5020395;28;20234;-44
2021/08/18 02:05:26;;;;;;;11.10;6.47;;;13.70;99.90;;;;;;5023874;28;20211;-45
2021/08/18 02:07:52;;;;;;;12.23;6.23;;;13.70;99.90;;;;;;5005612;28;20219;-45
2021/08/18 02:10:20;;;;;;;12.73;6.67;;;13.70;99.90;;;;;;5024765;28;20701;-45
2021/08/18 02:12:46;;;;;;;10.33;6.90;;;13.80;99.90;;;;;;5020762;28;20279;-47
2021/08/18 02:15:16;;;;;;;10.77;6.23;;;13.70;99.90;;;;;;5007167;28;20192;-50
2021/08/18 02:17:43;;;;;;;10.47;6.50;;;13.80;99.90;;;;;;5022237;28;20203;-44
2021/08/18 02:20:14;;;;;;;14.30;6.40;;;13.70;99.90;;;;;;5023817;28;20220;-46
2021/08/18 02:22:41;;;;;;;13.73;6.23;;;13.70;99.90;;;;;;5008125;28;20204;-48
2021/08/18 02:25:09;;;;;;;10.50;6.03;;;13.70;99.90;;;;;;5019662;28;20857;-43
2021/08/18 02:27:36;;;;;;;9.10;5.63;;;13.70;99.90;;;;;;5020892;28;20556;-46
2021/08/18 02:30:04;;;;;;;14.13;5.80;;;13.70;99.90;;;;;;5021158;28;20215;-43
2021/08/18 02:32:30;;;;;;;9.67;6.30;;;13.70;99.90;;;;;;5021941;28;20192;-47
2021/08/18 02:34:57;;;;;;;9.87;5.73;;;13.60;99.90;;;;;;5019879;28;20192;-43
2021/08/18 02:37:25;;;;;;;9.77;6.00;;;13.60;99.90;;;;;;5022997;28;20196;-45
2021/08/18 02:39:51;;;;;;;10.03;6.03;;;13.60;99.90;;;;;;4995997;28;20216;-43
2021/08/18 02:42:18;;;;;;;9.27;7.10;;;13.60;99.90;;;;;;5022898;28;20212;-44
2021/08/18 02:44:46;;;;;;;8.97;5.80;;;13.50;99.90;;;;;;5018894;28;20192;-51
2021/08/18 02:47:13;;;;;;;11.63;6.33;;;13.50;99.90;;;;;;5022988;28;20196;-43
2021/08/18 02:49:40;;;;;;;12.20;6.67;;;13.50;99.90;;;;;;5019263;28;20243;-50
2021/08/18 02:52:07;;;;;;;11.07;6.13;;;13.50;99.90;;;;;;5022373;28;20609;-43
2021/08/18 02:54:35;;;;;;;7.53;5.20;;;13.40;99.90;;;;;;5014362;28;20204;-48
2021/08/18 02:57:02;;;;;;;9.43;6.30;;;13.40;99.90;;;;;;5013827;28;20196;-44
2021/08/18 02:59:29;;;;;;;9.53;6.27;;;13.40;99.90;;;;;;5021943;28;20215;-47
2021/08/18 03:01:55;;;;;;;9.93;5.80;;;13.40;99.90;;;;;;5019512;28;20192;-47
2021/08/18 03:04:22;;;;;;;11.73;6.43;;;13.40;99.90;;;;;;5022846;28;20195;-45
2021/08/18 03:06:49;;;;;;;10.83;6.20;;;13.30;99.90;;;;;;5018318;28;20216;-49
2021/08/18 03:09:16;;;;;;;9.47;6.33;;;13.30;99.90;;;;;;5022676;28;20658;-46
2021/08/18 03:11:44;;;;;;;10.67;6.23;;;13.30;99.90;;;;;;5004138;28;20212;-44
2021/08/18 03:14:10;;;;;;;10.27;6.10;;;13.30;99.90;;;;;;5027973;28;20192;-47
2021/08/18 03:16:37;;;;;;;12.63;6.43;;;13.30;99.90;;;;;;5027976;28;20196;-47
2021/08/18 03:19:04;;;;;;;11.27;6.30;;;13.30;99.90;;;;;;5025070;28;20184;-44
2021/08/18 03:21:30;;;;;;;10.43;5.50;;;13.30;99.90;;;;;;5025271;28;20192;-48
2021/08/18 03:23:57;;;;;;;8.50;5.60;;;13.30;99.90;;;;;;5027194;28;20298;-50
2021/08/18 03:26:23;;;;;;;11.80;6.00;;;13.20;99.90;;;;;;5030391;28;20223;-50
2021/08/18 03:28:51;;;;;;;11.00;6.07;;;13.20;99.90;;;;;;5010747;28;20781;-49
2021/08/18 03:31:18;;;;;;;10.83;6.63;;;13.20;99.90;;;;;;5028359;28;20608;-50
2021/08/18 03:33:45;;;;;;;11.87;6.47;;;13.20;99.90;;;;;;5022085;28;20184;-44
2021/08/18 03:36:11;;;;;;;12.53;6.17;;;13.20;99.90;;;;;;5026080;28;20195;-46
2021/08/18 03:38:38;;;;;;;10.57;7.60;;;13.20;99.90;;;;;;5023395;28;20681;-48
2021/08/18 03:41:04;;;;;;;17.80;7.43;;;13.10;99.90;;;;;;5024325;28;20220;-45
2021/08/18 03:43:31;;;;;;;10.23;8.03;;;13.10;99.90;;;;;;5002183;28;20600;-46
2021/08/18 03:45:59;;;;;;;13.17;7.53;;;13.10;99.90;;;;;;5023073;28;20216;-44
2021/08/18 03:48:26;;;;;;;9.47;7.50;;;13.10;99.90;;;;;;5024948;28;20203;-46
2021/08/18 03:50:53;;;;;;;18.23;8.47;;;13.10;99.90;;;;;;5021634;28;20219;-46
2021/08/18 03:53:19;;;;;;;10.37;7.47;;;13.10;99.90;;;;;;5025582;28;20542;-46
2021/08/18 03:55:46;;;;;;;13.40;8.63;;;13.10;99.90;;;;;;5021756;28;20806;-46
2021/08/18 03:58:13;;;;;;;12.87;7.70;;;13.10;99.90;;;;;;5009709;28;20209;-48
2021/08/18 04:00:39;;;;;;;13.53;8.13;;;13.10;99.90;;;;;;5022357;28;20227;-49
2021/08/18 04:03:07;;;;;;;13.67;8.47;;;13.10;99.90;;;;;;5024344;28;20188;-43
2021/08/18 04:05:34;;;;;;;12.83;7.90;;;13.20;99.90;;;;;;5023691;28;20216;-46
2021/08/18 04:08:01;;;;;;;12.10;8.17;;;13.20;99.90;;;;;;5024358;28;20180;-46
2021/08/18 04:10:28;;;;;;;10.87;7.83;;;13.20;99.90;;;;;;5027189;28;20709;-45
2021/08/18 04:12:57;;;;;;;13.07;8.80;;;13.20;99.90;;;;;;5008848;28;20291;-46
2021/08/18 04:15:25;;;;;;;13.13;9.40;;;13.20;99.90;;;;;;5027369;28;20200;-44
2021/08/18 04:17:52;;;;;;;13.70;9.73;;;13.20;99.90;;;;;;5022955;28;20191;-45
2021/08/18 04:20:20;;;;;;;11.67;8.43;;;13.20;99.90;;;;;;5027230;28;20701;-45
2021/08/18 04:22:47;;;;;;;12.37;8.87;;;13.20;99.90;;;;;;5022439;28;20192;-45
2021/08/18 04:25:15;;;;;;;15.30;8.60;;;13.20;99.90;;;;;;5023773;28;20196;-46
2021/08/18 04:27:41;;;;;;;15.63;9.40;;;13.20;99.90;;;;;;5021706;28;20642;-44
2021/08/18 04:30:10;;;;;;;11.90;8.47;;;13.30;99.90;;;;;;5003544;28;20233;-45
2021/08/18 04:32:37;;;;;;;13.30;8.07;;;13.30;99.90;;;;;;5023989;28;20618;-47
2021/08/18 04:35:06;;;;;;;14.33;8.53;;;13.30;99.90;;;;;;5023580;28;20187;-47
2021/08/18 04:37:35;;;;;;;11.10;7.93;;;13.40;99.90;;;;;;5023548;28;20676;-49
2021/08/18 04:40:02;;;;;;;15.37;8.47;;;13.40;99.90;;;;;;5022165;28;21025;-45
2021/08/18 04:42:28;;;;;;;12.67;7.70;;;13.40;99.90;;;;;;5024366;28;20207;-48
2021/08/18 04:44:56;;;;;;;11.07;8.63;;;13.50;99.90;;;;;;4998237;28;20205;-44
2021/08/18 04:47:23;;;;;;;10.80;8.07;;;13.50;99.90;;;;;;5024423;28;20212;-47
2021/08/18 04:49:49;;;;;;;14.67;8.20;;;13.50;99.90;;;;;;5019410;28;20975;-45
2021/08/18 04:52:16;;;;;;;11.03;7.93;;;13.50;99.90;;;;;;5024692;28;20203;-43
2021/08/18 04:54:44;;;;;;;12.30;7.73;;;13.60;99.90;;;;;;5020628;28;20196;-45
2021/08/18 04:57:10;;;;;;;9.97;7.67;;;13.60;99.90;;;;;;5024394;28;20192;-46
2021/08/18 04:59:37;;;;;;;12.70;7.50;;;13.60;99.90;;;;;;4999740;28;20588;-47
2021/08/18 05:02:04;;;;;;;13.07;8.03;;;13.70;99.90;;;;;;5014968;28;20188;-44
2021/08/18 05:04:31;;;;;;;10.83;7.57;;;13.70;99.90;;;;;;5023814;28;20192;-47
2021/08/18 05:06:57;;;;;;;12.07;8.50;;;13.70;99.90;;;;;;5021324;28;20240;-44
2021/08/18 05:09:24;;;;;;;8.63;7.43;;;13.70;99.90;;;;;;5024304;28;20219;-44
2021/08/18 05:11:53;;;;;;;10.53;8.33;;;13.70;99.90;;;;;;5020617;28;20192;-44
2021/08/18 05:14:20;;;;;;;10.83;7.40;;;13.80;99.90;;;;;;5024782;28;20266;-47
2021/08/18 05:16:47;;;;;;;11.70;7.97;;;13.80;99.90;;;;;;4996933;28;20227;-44
2021/08/18 05:19:14;;;;;;;10.67;7.40;;;13.80;99.90;;;;;;5023759;28;20199;-48
2021/08/18 05:21:40;;;;;;;13.73;8.03;;;13.80;99.90;;;;;;5020789;28;20199;-50
2021/08/18 05:24:07;;;;;;;10.33;7.20;;;13.80;99.90;;;;;;5023231;28;20215;-46
2021/08/18 05:26:34;;;;;;;11.20;7.97;;;13.90;99.90;;;;;;5022596;28;20216;-46
2021/08/18 05:29:02;;;;;;;11.43;6.97;;;13.90;99.90;;;;;;5021431;28;20272;-47
2021/08/18 05:31:28;;;;;;;9.97;6.67;;;13.90;99.90;;;;;;5003508;28;20220;-43
2021/08/18 05:33:55;;;;;;;11.80;7.73;;;14.00;99.90;;;;;;5019850;28;20900;-45
2021/08/18 05:36:22;;;;;;;10.97;7.10;;;14.00;99.90;;;;;;5023945;28;20195;-46
2021/08/18 05:38:49;;;;;;;8.90;7.17;;;14.00;99.90;;;;;;5021272;28;20263;-43
2021/08/18 05:41:16;;;;;;;8.83;6.53;;;14.00;99.90;;;;;;5025524;28;20224;-46
2021/08/18 05:43:43;;;;;;;10.13;7.43;;;14.10;99.90;;;;;;5022475;28;20199;-44
2021/08/18 05:46:11;;;;;;;8.97;6.97;;;14.10;99.90;;;;;;5023901;28;20219;-43
2021/08/18 05:48:37;;;;;;;9.97;7.37;;;14.10;99.90;;;;;;5004446;28;20208;-44
2021/08/18 05:51:07;;;;;;;10.03;7.93;;;14.20;99.90;;;;;;5021513;28;20208;-43
2021/08/18 05:53:34;;;;;;;12.90;7.77;;;14.20;99.90;;;;;;5022101;28;20199;-45
2021/08/18 05:56:01;;;;;;;10.83;8.60;;;14.30;99.90;;;;;;5021403;28;20180;-49
2021/08/18 05:58:27;;;;;;;10.03;7.10;;;14.30;99.90;;;;;;5023475;28;20200;-45
2021/08/18 06:00:54;;;;;;;9.27;7.50;;;14.40;99.90;;;;;;5020513;28;20208;-45
2021/08/18 06:03:22;;;;;;;9.97;7.37;;;14.40;99.90;;;;;;5010156;28;20278;-47
2021/08/18 06:05:49;;;;;;;11.30;7.43;;;14.50;99.90;;;;;;5021037;28;20246;-46
2021/08/18 06:08:15;;;;;;;10.20;6.90;;;14.50;99.90;;;;;;5025880;28;20200;-44
2021/08/18 06:10:42;;;;;;;7.77;6.47;;;14.50;99.90;;;;;;5020802;28;20583;-47
2021/08/18 06:13:09;;;;;;;11.17;7.13;;;14.50;99.90;;;;;;5022939;28;20192;-45
2021/08/18 06:15:35;;;;;;;7.07;5.67;;;14.50;99.90;;;;;;5021258;28;20188;-47
2021/08/18 06:18:02;;;;;;;6.67;5.93;;;14.50;99.90;;;;;;5021175;28;20199;-44
2021/08/18 06:20:30;;;;;;;8.13;5.67;;;14.60;99.90;;;;;;5006553;28;20246;-48
2021/08/18 06:22:58;;;;;;;9.63;7.00;;;14.60;99.90;;;;;;5019722;28;20204;-45
2021/08/18 06:25:25;;;;;;;7.03;5.70;;;14.60;99.90;;;;;;5022908;28;20576;-47
2021/08/18 06:27:51;;;;;;;8.13;5.57;;;14.70;99.90;;;;;;5018848;28;20208;-43
2021/08/18 06:30:18;;;;;;;8.37;5.77;;;14.70;99.90;;;;;;5022676;28;20242;-45
2021/08/18 06:32:45;;;;;;;7.17;4.87;;;14.70;99.90;;;;;;5019181;28;20188;-45
2021/08/18 06:35:12;;;;;;;9.07;5.93;;;14.70;99.90;;;;;;5004030;28;20209;-43
2021/08/18 06:37:41;;;;;;;6.33;5.73;;;14.70;99.90;;;;;;5017111;28;20204;-50
2021/08/18 06:40:09;;;;;;;6.27;5.20;;;14.70;99.90;;;;;;5021752;28;20223;-46
2021/08/18 06:42:39;;;;;;;6.63;4.93;;;14.70;99.90;;;;;;5021155;28;20192;-46
2021/08/18 06:45:06;;;;;;;7.37;4.93;;;14.60;99.90;;;;;;5021394;28;20192;-44
2021/08/18 06:47:32;;;;;;;6.63;4.90;;;14.60;99.90;;;;;;5022693;28;20223;-46
2021/08/18 06:49:59;;;;;;;5.27;4.10;;;14.60;99.90;;;;;;5005711;28;24303;-48
2021/08/18 06:52:26;;;;;;;5.23;4.57;;;14.60;99.90;;;;;;5021560;28;20299;-44
2021/08/18 06:54:53;;;;;;;4.63;4.07;;;14.60;99.90;;;;;;5022665;28;20908;-46
2021/08/18 06:57:20;;;;;;;4.20;3.57;;;14.70;99.90;;;;;;5027210;28;20191;-48
2021/08/18 06:59:47;;;;;;;4.43;3.80;;;14.80;99.90;;;;;;5005079;28;20235;-45
2021/08/18 07:02:13;;;;;;;9.37;4.20;;;15.00;99.90;;;;;;5026919;28;20246;-44
2021/08/18 07:04:40;;;;;;;4.40;2.97;;;15.00;99.90;;;;;;5013140;28;20646;-45
2021/08/18 07:07:06;;;;;;;4.60;3.33;;;15.00;99.90;;;;;;5021462;28;20220;-45
2021/08/18 07:09:33;;;;;;;4.07;3.67;;;15.00;99.90;;;;;;5024714;28;20247;-45
2021/08/18 07:12:01;;;;;;;3.10;2.70;;;15.00;99.90;;;;;;5023965;28;20926;-48
2021/08/18 07:14:27;;;;;;;3.03;2.53;;;15.00;99.90;;;;;;5026221;28;20192;-45
2021/08/18 07:16:54;;;;;;;2.63;2.43;;;14.90;99.90;;;;;;5023484;28;20181;-45
2021/08/18 07:19:21;;;;;;;4.17;3.03;;;14.90;99.90;;;;;;5026820;28;20223;-45
2021/08/18 07:21:47;;;;;;;4.57;3.07;;;14.90;99.90;;;;;;4999584;28;20208;-46
2021/08/18 07:24:14;;;;;;;4.00;3.10;;;14.80;99.90;;;;;;5026780;28;20212;-49
2021/08/18 07:26:41;;;;;;;3.90;2.83;;;14.80;99.90;;;;;;5023663;28;20222;-46
2021/08/18 07:29:09;;;;;;;2.53;2.33;;;14.80;99.90;;;;;;5025640;28;20188;-46
2021/08/18 07:31:36;;;;;;;4.27;3.50;;;14.80;99.90;;;;;;5025184;28;20207;-47
2021/08/18 07:34:02;;;;;;;3.13;2.90;;;14.80;99.90;;;;;;5024464;28;20180;-48
2021/08/18 07:36:29;;;;;;;4.40;3.03;;;14.90;99.90;;;;;;5023536;28;20196;-46
2021/08/18 07:38:55;;;;;;;7.27;3.47;;;14.80;99.90;;;;;;5003072;28;20934;-47
2021/08/18 07:41:22;;;;;;;7.27;3.23;;;14.80;99.90;;;;;;5025816;28;20220;-45
2021/08/18 07:43:49;;;;;;;4.47;3.63;;;14.80;99.90;;;;;;5022346;28;21017;-50
2021/08/18 07:46:17;;;;;;;4.73;3.40;;;14.80;99.90;;;;;;5025926;28;20690;-46
2021/08/18 07:48:44;;;;;;;2.97;2.77;;;14.80;99.90;;;;;;5021429;28;20196;-45
2021/08/18 07:51:10;;;;;;;4.07;2.87;;;14.80;99.90;;;;;;5026062;28;20247;-47
2021/08/18 07:53:41;;;;;;;5.93;3.43;;;14.80;99.90;;;;;;5008542;28;20211;-46
2021/08/18 07:56:07;;;;;;;3.80;2.90;;;14.80;99.90;;;;;;5024694;28;20270;-45
2021/08/18 07:58:34;;;;;;;3.87;2.80;;;14.80;99.90;;;;;;5023996;28;20658;-49
2021/08/18 08:01:00;;;;;;;6.60;3.80;;;14.90;99.90;;;;;;5023105;28;20204;-44
2021/08/18 08:03:28;;;;;;;4.67;3.10;;;14.90;99.90;;;;;;5025839;28;20203;-45
2021/08/18 08:05:55;;;;;;;7.43;4.13;;;15.00;99.90;;;;;;5022353;28;20188;-44
2021/08/18 08:08:22;;;;;;;6.13;3.73;;;15.10;99.90;;;;;;5025234;28;20224;-45
2021/08/18 08:10:48;;;;;;;4.40;3.30;;;15.20;99.90;;;;;;5004758;28;20223;-44
2021/08/18 08:13:15;;;;;;;5.60;3.60;;;15.30;99.90;;;;;;5025193;28;20200;-44
2021/08/18 08:15:42;;;;;;;4.13;3.50;;;15.40;99.90;;;;;;5022109;28;20203;-51
2021/08/18 08:18:10;;;;;;;3.63;3.33;;;15.50;99.90;;;;;;5024678;28;20545;-48
2021/08/18 08:20:39;;;;;;;6.80;3.70;;;15.60;99.90;;;;;;5023260;28;20222;-46
2021/08/18 08:23:05;;;;;;;3.63;3.27;;;15.80;99.90;;;;;;5024305;28;20949;-47
2021/08/18 08:25:32;;;;;;;5.57;3.40;;;15.80;99.90;;;;;;5008376;28;20598;-46
2021/08/18 08:27:59;;;;;;;5.53;3.13;;;15.90;99.90;;;;;;5022035;28;20826;-44
2021/08/18 08:30:25;;;;;;;5.00;3.40;;;16.00;99.90;;;;;;5024562;28;20219;-47
2021/08/18 08:32:52;;;;;;;5.67;2.90;;;16.10;99.90;;;;;;5020651;28;20188;-47
2021/08/18 08:35:19;;;;;;;6.13;4.00;;;16.10;99.90;;;;;;5024543;28;20206;-43
2021/08/18 08:37:47;;;;;;;4.47;3.20;;;16.10;99.90;;;;;;5020952;28;20193;-48
2021/08/18 08:40:14;;;;;;;3.33;2.57;;;16.10;99.90;;;;;;5007533;28;20224;-48
2021/08/18 08:42:42;;;;;;;5.03;3.43;;;16.00;99.90;;;;;;5022582;28;20196;-44
2021/08/18 08:45:10;;;;;;;3.20;2.50;;;16.00;99.90;;;;;;5026894;28;20662;-44
2021/08/18 08:47:37;;;;;;;7.70;3.67;;;15.90;99.90;;;;;;5022384;28;20713;-47
2021/08/18 08:50:05;;;;;;;4.70;3.20;;;15.90;99.90;;;;;;5021862;28;20219;-43
2021/08/18 08:52:33;;;;;;;5.83;3.27;;;15.80;99.90;;;;;;5023558;28;20200;-49
2021/08/18 08:55:01;;;;;;;5.33;3.10;;;15.80;99.90;;;;;;5021775;28;20389;-44
2021/08/18 08:57:27;;;;;;;5.83;3.13;;;15.70;99.90;;;;;;5008119;28;20701;-46
2021/08/18 08:59:54;;;;;;;6.20;3.23;;;15.60;99.90;;;;;;5020724;28;20307;-47
2021/08/18 09:02:22;;;;;;;4.87;3.30;;;15.50;99.90;;;;;;5024178;28;20200;-45
2021/08/18 09:04:50;;;;;;;5.20;3.77;;;15.40;99.90;;;;;;5020445;28;20200;-50
2021/08/18 09:07:18;;;;;;;6.37;3.67;;;15.40;99.90;;;;;;5024157;28;20220;-44
2021/08/18 09:09:52;;;;;;;7.20;3.93;;;15.30;99.90;;;;;;5019778;28;20294;-49
2021/08/18 09:12:27;;;;;;;8.90;4.10;;;15.40;99.90;;;;;;5008249;28;20208;-47
2021/08/18 09:14:53;;;;;;;6.87;3.90;;;15.30;99.90;;;;;;5021912;28;20195;-47
2021/08/18 09:17:29;;;;;;;11.03;4.10;;;15.30;99.90;;;;;;5028660;28;20211;-49
2021/08/18 09:20:01;;;;;;;5.03;3.80;;;15.30;99.90;;;;;;5025202;28;20269;-49
2021/08/18 09:22:28;;;;;;;7.60;4.27;;;15.30;99.90;;;;;;5027768;28;20231;-44
2021/08/18 09:25:17;;;;;;;6.37;3.80;;;15.20;99.90;;;;;;5025185;28;20219;-49
2021/08/18 09:27:48;;;;;;;4.40;3.93;;;15.20;99.90;;;;;;5011841;28;20212;-45
2021/08/18 09:30:21;;;;;;;8.50;4.83;;;15.20;99.90;;;;;;5021447;28;20219;-46
2021/08/18 09:32:48;;;;;;;9.67;4.43;;;15.20;99.90;;;;;;5021937;28;20192;-48
2021/08/18 09:35:17;;;;;;;8.37;4.80;;;15.20;99.90;;;;;;5023858;28;20202;-44
2021/08/18 09:37:45;;;;;;;6.30;4.67;;;15.30;99.90;;;;;;5020185;28;20192;-45
2021/08/18 09:40:19;;;;;;;6.30;4.67;;;15.50;99.90;;;;;;5023097;28;20214;-47
2021/08/18 09:42:48;;;;;;;13.43;4.27;;;15.60;99.90;;;;;;5005358;28;20224;-48
2021/08/18 09:45:18;;;;;;;9.27;3.93;;;15.60;99.90;;;;;;5017262;28;20207;-44
2021/08/18 09:48:00;;;;;;;8.23;4.27;;;15.70;99.90;;;;;;5020160;28;20216;-46
2021/08/18 09:50:29;;;;;;;6.23;3.53;;;15.80;99.90;;;;;;5023365;28;20274;-44
2021/08/18 09:53:06;;;;;;;7.03;3.80;;;15.80;99.90;;;;;;5020901;28;20200;-45
2021/08/18 09:55:32;;;;;;;7.37;4.10;;;16.00;99.90;;;;;;5024163;28;20199;-44
2021/08/18 09:58:00;;;;;;;4.93;3.67;;;16.00;99.90;;;;;;5022793;28;20184;-44
2021/08/18 10:00:27;;;;;;;8.87;4.03;;;16.00;99.90;;;;;;5007298;28;20232;-46
2021/08/18 10:02:54;;;;;;;10.10;4.60;;;16.00;99.90;;;;;;5019572;28;20196;-44
2021/08/18 10:05:21;;;;;;;6.03;4.10;;;16.00;99.90;;;;;;5023445;28;20200;-47
2021/08/18 10:07:49;;;;;;;6.93;4.10;;;16.00;99.90;;;;;;5019225;28;20283;-45
2021/08/18 10:10:15;;;;;;;10.27;4.50;;;16.00;99.90;;;;;;5023213;28;20547;-45
2021/08/18 10:12:42;;;;;;;6.93;3.90;;;16.00;99.90;;;;;;5019947;28;20200;-48
2021/08/18 10:15:11;;;;;;;4.93;4.27;;;16.10;99.90;;;;;;4999814;28;20204;-47
2021/08/18 10:17:42;;;;;;;6.70;4.40;;;16.10;99.90;;;;;;5020460;28;20210;-49
2021/08/18 10:20:10;;;;;;;8.50;3.70;;;16.10;99.90;;;;;;5022349;28;20223;-44
2021/08/18 10:22:38;;;;;;;12.37;4.40;;;16.10;99.90;;;;;;5022295;28;20723;-46
2021/08/18 10:25:34;;;;;;;8.93;3.97;;;16.20;99.90;;;;;;5017972;28;20191;-43
2021/08/18 10:28:02;;;;;;;9.13;4.03;;;16.20;99.90;;;;;;5024896;28;20243;-46
2021/08/18 10:30:30;;;;;;;9.07;4.40;;;16.20;99.90;;;;;;5010396;28;20228;-44
2021/08/18 10:32:57;;;;;;;7.43;4.10;;;16.20;99.90;;;;;;5023856;28;20216;-44
2021/08/18 10:35:43;;;;;;;8.00;4.23;;;16.20;99.90;;;;;;5027524;28;20191;-46
2021/08/18 10:38:35;;;;;;;7.20;4.23;;;16.20;99.90;;;;;;5017668;28;20192;-46
2021/08/18 10:41:02;;;;;;;5.57;3.63;;;16.30;99.90;;;;;;5026003;28;20216;-47
2021/08/18 10:43:55;;;;;;;8.40;4.43;;;16.30;99.90;;;;;;5023919;28;20250;-43
2021/08/18 10:46:24;;;;;;;5.53;4.10;;;16.30;99.90;;;;;;5004129;28;20238;-43
2021/08/18 10:49:02;;;;;;;6.93;4.60;;;16.40;99.90;;;;;;5025752;28;20227;-46
2021/08/18 10:51:53;;;;;;;5.77;3.90;;;16.50;99.90;;;;;;5024280;28;20814;-46
2021/08/18 10:54:39;;;;;;;9.50;4.03;;;16.60;99.90;;;;;;5023225;28;20927;-45
2021/08/18 10:57:39;;;;;;;8.00;4.37;;;16.70;99.90;;;;;;5005634;28;20196;-49
2021/08/18 11:00:14;;;;;;;6.47;4.23;;;16.70;99.90;;;;;;5001031;28;20212;-46
2021/08/18 11:03:00;;;;;;;6.50;4.40;;;16.80;99.90;;;;;;5023975;28;20219;-44
2021/08/18 11:05:42;;;;;;;7.47;4.27;;;16.80;99.90;;;;;;5023083;28;20274;-43
2021/08/18 11:08:11;;;;;;;4.80;4.20;;;16.90;99.90;;;;;;5024184;28;20214;-46
2021/08/18 11:10:40;;;;;;;6.63;4.37;;;16.90;99.90;;;;;;5025064;28;20204;-43
2021/08/18 11:13:08;;;;;;;5.27;3.93;;;16.90;99.90;;;;;;5026709;28;20203;-43
2021/08/18 11:15:54;;;;;;;7.30;4.23;;;16.90;99.90;;;;;;5029436;28;20475;-46
2021/08/18 11:18:23;;;;;;;9.87;4.47;;;17.00;99.90;;;;;;5008059;28;20199;-44
2021/08/18 11:20:52;;;;;;;8.00;4.17;;;17.00;99.90;;;;;;5030144;28;20226;-44
2021/08/18 11:23:28;;;;;;;9.53;4.47;;;17.00;99.90;;;;;;5026687;28;20207;-45
2021/08/18 11:26:03;;;;;;;9.43;4.33;;;17.00;99.90;;;;;;5030991;28;20199;-47
2021/08/18 11:28:32;;;;;;;6.97;4.47;;;17.00;99.90;;;;;;5024712;28;20228;-44
2021/08/18 11:31:00;;;;;;;7.57;4.27;;;16.90;99.90;;;;;;5025809;28;20227;-47
2021/08/18 11:33:29;;;;;;;10.43;3.87;;;17.00;99.90;;;;;;5006307;28;20206;-47
2021/08/18 11:35:56;;;;;;;8.40;4.57;;;17.00;99.90;;;;;;5025986;28;20188;-46
2021/08/18 11:38:23;;;;;;;9.00;4.87;;;17.00;99.90;;;;;;5021792;28;20962;-44
2021/08/18 11:40:52;;;;;;;8.50;4.87;;;17.00;99.90;;;;;;5025373;28;20230;-50
2021/08/18 11:43:35;;;;;;;8.03;4.93;;;17.10;99.90;;;;;;5022021;28;20192;-45
2021/08/18 11:46:02;;;;;;;9.17;4.60;;;17.30;99.90;;;;;;5025058;28;20196;-42
2021/08/18 11:48:30;;;;;;;7.00;4.37;;;17.40;99.90;;;;;;5005227;28;20278;-43
2021/08/18 11:50:57;;;;;;;11.27;4.97;;;17.50;99.90;;;;;;5024283;28;20227;-43
2021/08/18 11:53:25;;;;;;;7.63;4.50;;;17.40;99.90;;;;;;5021630;28;20224;-46
2021/08/18 11:55:59;;;;;;;8.63;4.40;;;17.40;99.90;;;;;;5025412;28;20196;-44
2021/08/18 11:58:35;;;;;;;6.57;4.87;;;17.40;99.90;;;;;;5022477;28;20184;-44
2021/08/18 12:01:03;;;;;;;6.20;4.83;;;17.50;99.90;;;;;;5026915;28;20273;-43
2021/08/18 12:03:31;;;;;;;15.93;4.90;;;17.60;99.90;;;;;;5023214;28;20184;-44
2021/08/18 12:06:00;;;;;;;7.87;5.03;;;17.70;99.90;;;;;;5006608;28;20721;-46
2021/08/18 12:08:38;;;;;;;13.37;5.10;;;17.60;99.90;;;;;;5021969;28;20219;-43
2021/08/18 12:11:06;;;;;;;6.97;4.67;;;17.70;99.90;;;;;;5024222;28;20212;-46
2021/08/18 12:13:45;;;;;;;10.90;4.93;;;17.70;99.90;;;;;;5025614;28;20932;-43
2021/08/18 12:16:26;;;;;;;9.73;5.00;;;17.60;99.90;;;;;;5012996;28;20215;-46
2021/08/18 12:18:54;;;;;;;11.37;5.63;;;17.60;99.90;;;;;;5003176;28;20204;-46
2021/08/18 12:21:23;;;;;;;6.90;4.60;;;17.60;99.90;;;;;;5005043;28;20255;-46
2021/08/18 12:23:51;;;;;;;8.80;5.37;;;17.70;99.90;;;;;;5012681;28;20191;-44
2021/08/18 12:26:32;;;;;;;7.10;4.57;;;17.80;99.90;;;;;;5016235;28;20204;-45
2021/08/18 12:29:00;;;;;;;8.17;4.50;;;17.80;99.90;;;;;;5023000;28;20281;-45
2021/08/18 12:31:28;;;;;;;9.23;4.80;;;17.90;99.90;;;;;;5012403;28;20188;-45
2021/08/18 12:34:11;;;;;;;7.70;4.30;;;18.10;99.90;;;;;;5019097;28;20219;-43
2021/08/18 12:36:38;;;;;;;10.87;4.87;;;18.20;99.90;;;;;;5004732;28;20305;-47
2021/08/18 12:39:05;;;;;;;5.80;3.93;;;18.40;99.90;;;;;;5007219;28;20259;-45
2021/08/18 12:41:34;;;;;;;8.40;4.40;;;18.50;99.90;;;;;;5014251;28;20215;-45
2021/08/18 12:44:08;;;;;;;8.73;4.50;;;18.70;99.90;;;;;;5020815;28;20200;-45
2021/08/18 12:46:36;;;;;;;4.10;3.57;;;18.80;99.90;;;;;;5011500;28;20194;-47
2021/08/18 12:49:27;;;;;;;4.30;3.33;;;18.80;99.90;;;;;;5010769;28;20229;-44
2021/08/18 12:51:54;;;;;;;5.47;3.07;;;18.60;99.90;;;;;;5006310;28;20215;-45
2021/08/18 12:54:21;;;;;;;5.17;3.20;;;18.40;99.90;;;;;;5012445;28;20211;-45
2021/08/18 12:56:48;;;;;;;5.17;3.57;;;18.20;99.90;;;;;;5010611;28;20200;-44
2021/08/18 12:59:15;;;;;;;4.00;3.30;;;18.10;99.90;;;;;;5014909;28;20196;-50